sensor_id;sensor_type;location;lat;lon;timestamp;P1;durP1;ratioP1;P2;durP2;ratioP2
29030;SDS011;16122;50.236;11.734;2024-03-25T00:00:27;2.07;;;1.87;;
29030;SDS011;16122;50.236;11.734;2024-03-25T00:02:53;2.30;;;2.10;;
29030;SDS011;16122;50.236;11.734;2024-03-25T00:05:20;3.13;;;2.83;;
29030;SDS011;16122;50.236;11.734;2024-03-25T00:07:48;2.57;;;2.37;;
29030;SDS011;16122;50.236;11.734;2024-03-25T00:10:14;3.13;;;2.70;;
29030;SDS011;16122;50.236;11.734;2024-03-25T00:12:40;2.63;;;2.20;;
29030;SDS011;16122;50.236;11.734;2024-03-25T00:15:06;2.43;;;2.23;;
29030;SDS011;16122;50.236;11.734;2024-03-25T00:17:33;2.23;;;1.90;;
29030;SDS011;16122;50.236;11.734;2024-03-25T00:19:59;2.30;;;2.10;;
29030;SDS011;16122;50.236;11.734;2024-03-25T00:22:25;2.43;;;2.23;;
29030;SDS011;16122;50.236;11.734;2024-03-25T00:24:52;2.70;;;2.20;;
29030;SDS011;16122;50.236;11.734;2024-03-25T00:27:18;2.30;;;2.17;;
29030;SDS011;16122;50.236;11.734;2024-03-25T00:29:44;2.57;;;1.80;;
29030;SDS011;16122;50.236;11.734;2024-03-25T00:32:10;2.30;;;2.10;;
29030;SDS011;16122;50.236;11.734;2024-03-25T00:34:36;2.27;;;2.07;;
29030;SDS011;16122;50.236;11.734;2024-03-25T00:37:02;2.07;;;1.90;;
29030;SDS011;16122;50.236;11.734;2024-03-25T00:39:29;2.30;;;1.97;;
29030;SDS011;16122;50.236;11.734;2024-03-25T00:41:57;2.10;;;1.90;;
29030;SDS011;16122;50.236;11.734;2024-03-25T00:44:23;2.90;;;2.70;;
29030;SDS011;16122;50.236;11.734;2024-03-25T00:46:49;2.50;;;2.30;;
29030;SDS011;16122;50.236;11.734;2024-03-25T00:49:16;1.93;;;1.73;;
29030;SDS011;16122;50.236;11.734;2024-03-25T00:51:42;2.13;;;1.80;;
29030;SDS011;16122;50.236;11.734;2024-03-25T00:54:08;2.70;;;2.50;;
29030;SDS011;16122;50.236;11.734;2024-03-25T00:56:34;2.33;;;1.73;;
29030;SDS011;16122;50.236;11.734;2024-03-25T00:59:00;2.47;;;2.27;;
29030;SDS011;16122;50.236;11.734;2024-03-25T01:01:32;2.73;;;2.10;;
29030;SDS011;16122;50.236;11.734;2024-03-25T01:03:58;2.20;;;2.07;;
29030;SDS011;16122;50.236;11.734;2024-03-25T01:06:24;2.13;;;2.00;;
29030;SDS011;16122;50.236;11.734;2024-03-25T01:08:50;2.13;;;1.97;;
29030;SDS011;16122;50.236;11.734;2024-03-25T01:11:16;3.20;;;2.10;;
29030;SDS011;16122;50.236;11.734;2024-03-25T01:13:43;2.10;;;2.00;;
29030;SDS011;16122;50.236;11.734;2024-03-25T01:16:09;1.93;;;1.63;;
29030;SDS011;16122;50.236;11.734;2024-03-25T01:18:35;2.90;;;2.17;;
29030;SDS011;16122;50.236;11.734;2024-03-25T01:21:01;4.07;;;1.80;;
29030;SDS011;16122;50.236;11.734;2024-03-25T01:23:30;1.93;;;1.80;;
29030;SDS011;16122;50.236;11.734;2024-03-25T01:25:55;2.10;;;2.00;;
29030;SDS011;16122;50.236;11.734;2024-03-25T01:28:21;2.30;;;2.10;;
29030;SDS011;16122;50.236;11.734;2024-03-25T01:30:47;1.93;;;1.73;;
29030;SDS011;16122;50.236;11.734;2024-03-25T01:33:14;1.97;;;1.77;;
29030;SDS011;16122;50.236;11.734;2024-03-25T01:35:40;2.13;;;1.80;;
29030;SDS011;16122;50.236;11.734;2024-03-25T01:38:06;3.20;;;2.17;;
29030;SDS011;16122;50.236;11.734;2024-03-25T01:40:32;2.20;;;1.73;;
29030;SDS011;16122;50.236;11.734;2024-03-25T01:43:00;1.97;;;1.87;;
29030;SDS011;16122;50.236;11.734;2024-03-25T01:45:28;2.00;;;1.80;;
29030;SDS011;16122;50.236;11.734;2024-03-25T01:47:56;2.13;;;1.90;;
29030;SDS011;16122;50.236;11.734;2024-03-25T01:50:23;1.70;;;1.60;;
29030;SDS011;16122;50.236;11.734;2024-03-25T01:52:50;2.10;;;1.60;;
29030;SDS011;16122;50.236;11.734;2024-03-25T01:55:17;2.03;;;1.93;;
29030;SDS011;16122;50.236;11.734;2024-03-25T01:57:46;2.20;;;2.00;;
29030;SDS011;16122;50.236;11.734;2024-03-25T02:00:13;1.87;;;1.60;;
29030;SDS011;16122;50.236;11.734;2024-03-25T02:02:44;1.50;;;1.40;;
29030;SDS011;16122;50.236;11.734;2024-03-25T02:05:12;2.10;;;1.90;;
29030;SDS011;16122;50.236;11.734;2024-03-25T02:07:39;3.73;;;1.77;;
29030;SDS011;16122;50.236;11.734;2024-03-25T02:10:07;1.67;;;1.50;;
29030;SDS011;16122;50.236;11.734;2024-03-25T02:12:42;1.53;;;1.40;;
29030;SDS011;16122;50.236;11.734;2024-03-25T02:15:09;2.13;;;1.80;;
29030;SDS011;16122;50.236;11.734;2024-03-25T02:17:36;1.60;;;1.50;;
29030;SDS011;16122;50.236;11.734;2024-03-25T02:20:04;1.30;;;1.20;;
29030;SDS011;16122;50.236;11.734;2024-03-25T02:22:33;2.40;;;1.43;;
29030;SDS011;16122;50.236;11.734;2024-03-25T02:24:59;1.60;;;1.50;;
29030;SDS011;16122;50.236;11.734;2024-03-25T02:27:26;2.10;;;1.70;;
29030;SDS011;16122;50.236;11.734;2024-03-25T02:30:09;1.77;;;1.67;;
29030;SDS011;16122;50.236;11.734;2024-03-25T02:32:39;3.43;;;1.60;;
29030;SDS011;16122;50.236;11.734;2024-03-25T02:35:06;1.70;;;1.40;;
29030;SDS011;16122;50.236;11.734;2024-03-25T02:37:37;2.03;;;1.70;;
29030;SDS011;16122;50.236;11.734;2024-03-25T02:40:04;1.87;;;1.27;;
29030;SDS011;16122;50.236;11.734;2024-03-25T02:42:32;1.40;;;1.30;;
29030;SDS011;16122;50.236;11.734;2024-03-25T02:44:58;1.90;;;1.70;;
29030;SDS011;16122;50.236;11.734;2024-03-25T02:47:25;1.23;;;1.10;;
29030;SDS011;16122;50.236;11.734;2024-03-25T02:49:51;1.60;;;1.20;;
29030;SDS011;16122;50.236;11.734;2024-03-25T02:52:18;1.50;;;1.40;;
29030;SDS011;16122;50.236;11.734;2024-03-25T02:54:44;1.43;;;1.33;;
29030;SDS011;16122;50.236;11.734;2024-03-25T02:57:12;1.60;;;1.30;;
29030;SDS011;16122;50.236;11.734;2024-03-25T02:59:38;1.67;;;1.43;;
29030;SDS011;16122;50.236;11.734;2024-03-25T03:02:04;1.40;;;1.30;;
29030;SDS011;16122;50.236;11.734;2024-03-25T03:04:29;1.97;;;1.37;;
29030;SDS011;16122;50.236;11.734;2024-03-25T03:06:56;1.23;;;1.13;;
29030;SDS011;16122;50.236;11.734;2024-03-25T03:09:22;1.90;;;1.70;;
29030;SDS011;16122;50.236;11.734;2024-03-25T03:11:48;1.53;;;1.30;;
29030;SDS011;16122;50.236;11.734;2024-03-25T03:14:14;1.23;;;1.13;;
29030;SDS011;16122;50.236;11.734;2024-03-25T03:16:40;1.10;;;1.03;;
29030;SDS011;16122;50.236;11.734;2024-03-25T03:19:05;1.10;;;1.00;;
29030;SDS011;16122;50.236;11.734;2024-03-25T03:21:31;2.03;;;1.60;;
29030;SDS011;16122;50.236;11.734;2024-03-25T03:23:57;1.60;;;1.50;;
29030;SDS011;16122;50.236;11.734;2024-03-25T03:26:23;1.90;;;1.70;;
29030;SDS011;16122;50.236;11.734;2024-03-25T03:28:55;3.40;;;1.30;;
29030;SDS011;16122;50.236;11.734;2024-03-25T03:31:21;1.60;;;1.13;;
29030;SDS011;16122;50.236;11.734;2024-03-25T03:33:47;1.33;;;1.23;;
29030;SDS011;16122;50.236;11.734;2024-03-25T03:36:17;1.23;;;1.13;;
29030;SDS011;16122;50.236;11.734;2024-03-25T03:38:44;1.80;;;1.00;;
29030;SDS011;16122;50.236;11.734;2024-03-25T03:41:10;2.30;;;1.33;;
29030;SDS011;16122;50.236;11.734;2024-03-25T03:43:36;1.60;;;1.40;;
29030;SDS011;16122;50.236;11.734;2024-03-25T03:46:02;1.30;;;1.20;;
29030;SDS011;16122;50.236;11.734;2024-03-25T03:48:29;1.40;;;1.30;;
29030;SDS011;16122;50.236;11.734;2024-03-25T03:50:55;1.47;;;1.30;;
29030;SDS011;16122;50.236;11.734;2024-03-25T03:53:22;2.00;;;1.43;;
29030;SDS011;16122;50.236;11.734;2024-03-25T03:55:54;1.40;;;1.17;;
29030;SDS011;16122;50.236;11.734;2024-03-25T03:58:24;1.50;;;1.40;;
29030;SDS011;16122;50.236;11.734;2024-03-25T04:00:51;1.20;;;1.10;;
29030;SDS011;16122;50.236;11.734;2024-03-25T04:03:17;1.50;;;1.40;;
29030;SDS011;16122;50.236;11.734;2024-03-25T04:05:44;1.77;;;1.20;;
29030;SDS011;16122;50.236;11.734;2024-03-25T04:08:10;1.23;;;1.13;;
29030;SDS011;16122;50.236;11.734;2024-03-25T04:10:36;1.70;;;1.53;;
29030;SDS011;16122;50.236;11.734;2024-03-25T04:13:03;1.40;;;1.20;;
29030;SDS011;16122;50.236;11.734;2024-03-25T04:15:32;1.60;;;1.00;;
29030;SDS011;16122;50.236;11.734;2024-03-25T04:18:02;2.43;;;1.40;;
29030;SDS011;16122;50.236;11.734;2024-03-25T04:20:29;1.50;;;1.00;;
29030;SDS011;16122;50.236;11.734;2024-03-25T04:22:55;1.63;;;1.53;;
29030;SDS011;16122;50.236;11.734;2024-03-25T04:25:21;1.43;;;1.23;;
29030;SDS011;16122;50.236;11.734;2024-03-25T04:27:47;1.63;;;1.30;;
29030;SDS011;16122;50.236;11.734;2024-03-25T04:30:13;1.67;;;1.43;;
29030;SDS011;16122;50.236;11.734;2024-03-25T04:32:40;2.40;;;1.30;;
29030;SDS011;16122;50.236;11.734;2024-03-25T04:35:06;1.20;;;1.10;;
29030;SDS011;16122;50.236;11.734;2024-03-25T04:37:33;1.07;;;0.97;;
29030;SDS011;16122;50.236;11.734;2024-03-25T04:39:59;1.40;;;0.93;;
29030;SDS011;16122;50.236;11.734;2024-03-25T04:42:25;2.00;;;1.27;;
29030;SDS011;16122;50.236;11.734;2024-03-25T04:44:52;1.57;;;1.03;;
29030;SDS011;16122;50.236;11.734;2024-03-25T04:47:19;2.17;;;1.37;;
29030;SDS011;16122;50.236;11.734;2024-03-25T04:49:45;2.07;;;1.40;;
29030;SDS011;16122;50.236;11.734;2024-03-25T04:52:14;1.37;;;1.17;;
29030;SDS011;16122;50.236;11.734;2024-03-25T04:54:43;1.40;;;1.10;;
29030;SDS011;16122;50.236;11.734;2024-03-25T04:57:09;2.00;;;1.00;;
29030;SDS011;16122;50.236;11.734;2024-03-25T04:59:35;2.00;;;1.37;;
29030;SDS011;16122;50.236;11.734;2024-03-25T05:02:01;1.23;;;1.13;;
29030;SDS011;16122;50.236;11.734;2024-03-25T05:04:27;1.00;;;0.80;;
29030;SDS011;16122;50.236;11.734;2024-03-25T05:06:53;0.90;;;0.90;;
29030;SDS011;16122;50.236;11.734;2024-03-25T05:09:19;1.37;;;1.10;;
29030;SDS011;16122;50.236;11.734;2024-03-25T05:11:45;1.10;;;1.00;;
29030;SDS011;16122;50.236;11.734;2024-03-25T05:14:11;1.63;;;1.23;;
29030;SDS011;16122;50.236;11.734;2024-03-25T05:16:36;1.20;;;1.03;;
29030;SDS011;16122;50.236;11.734;2024-03-25T05:19:02;1.10;;;1.00;;
29030;SDS011;16122;50.236;11.734;2024-03-25T05:21:30;1.47;;;1.07;;
29030;SDS011;16122;50.236;11.734;2024-03-25T05:23:56;1.07;;;0.97;;
29030;SDS011;16122;50.236;11.734;2024-03-25T05:26:22;1.00;;;0.90;;
29030;SDS011;16122;50.236;11.734;2024-03-25T05:28:52;2.40;;;1.10;;
29030;SDS011;16122;50.236;11.734;2024-03-25T05:31:21;1.43;;;1.17;;
29030;SDS011;16122;50.236;11.734;2024-03-25T05:33:47;3.70;;;2.00;;
29030;SDS011;16122;50.236;11.734;2024-03-25T05:36:13;2.73;;;1.40;;
29030;SDS011;16122;50.236;11.734;2024-03-25T05:38:39;2.10;;;1.27;;
29030;SDS011;16122;50.236;11.734;2024-03-25T05:41:08;2.33;;;1.03;;
29030;SDS011;16122;50.236;11.734;2024-03-25T05:43:34;1.83;;;1.10;;
29030;SDS011;16122;50.236;11.734;2024-03-25T05:46:01;1.20;;;1.10;;
29030;SDS011;16122;50.236;11.734;2024-03-25T05:48:27;1.30;;;1.17;;
29030;SDS011;16122;50.236;11.734;2024-03-25T05:51:02;2.13;;;1.20;;
29030;SDS011;16122;50.236;11.734;2024-03-25T05:53:34;1.90;;;1.30;;
29030;SDS011;16122;50.236;11.734;2024-03-25T05:56:00;1.70;;;1.00;;
29030;SDS011;16122;50.236;11.734;2024-03-25T05:58:27;1.30;;;1.20;;
29030;SDS011;16122;50.236;11.734;2024-03-25T06:00:53;3.80;;;1.30;;
29030;SDS011;16122;50.236;11.734;2024-03-25T06:03:19;1.57;;;1.10;;
29030;SDS011;16122;50.236;11.734;2024-03-25T06:05:46;1.60;;;1.10;;
29030;SDS011;16122;50.236;11.734;2024-03-25T06:08:13;1.40;;;1.30;;
29030;SDS011;16122;50.236;11.734;2024-03-25T06:10:51;1.33;;;1.23;;
29030;SDS011;16122;50.236;11.734;2024-03-25T06:13:17;5.07;;;1.30;;
29030;SDS011;16122;50.236;11.734;2024-03-25T06:15:44;1.50;;;1.40;;
29030;SDS011;16122;50.236;11.734;2024-03-25T06:18:10;3.50;;;1.17;;
29030;SDS011;16122;50.236;11.734;2024-03-25T06:20:36;2.10;;;1.30;;
29030;SDS011;16122;50.236;11.734;2024-03-25T06:23:02;1.40;;;1.30;;
29030;SDS011;16122;50.236;11.734;2024-03-25T06:25:29;1.77;;;1.10;;
29030;SDS011;16122;50.236;11.734;2024-03-25T06:27:55;4.00;;;1.17;;
29030;SDS011;16122;50.236;11.734;2024-03-25T06:30:21;1.20;;;1.10;;
29030;SDS011;16122;50.236;11.734;2024-03-25T06:33:05;1.93;;;1.30;;
29030;SDS011;16122;50.236;11.734;2024-03-25T06:35:50;1.20;;;1.10;;
29030;SDS011;16122;50.236;11.734;2024-03-25T06:38:17;2.90;;;0.97;;
29030;SDS011;16122;50.236;11.734;2024-03-25T06:40:44;2.20;;;1.23;;
29030;SDS011;16122;50.236;11.734;2024-03-25T06:43:10;2.97;;;1.10;;
29030;SDS011;16122;50.236;11.734;2024-03-25T06:45:36;1.20;;;1.07;;
29030;SDS011;16122;50.236;11.734;2024-03-25T06:48:02;2.60;;;1.23;;
29030;SDS011;16122;50.236;11.734;2024-03-25T06:50:29;1.60;;;1.10;;
29030;SDS011;16122;50.236;11.734;2024-03-25T06:52:55;1.00;;;0.90;;
29030;SDS011;16122;50.236;11.734;2024-03-25T06:55:22;1.57;;;1.00;;
29030;SDS011;16122;50.236;11.734;2024-03-25T06:57:52;1.97;;;0.93;;
29030;SDS011;16122;50.236;11.734;2024-03-25T07:00:18;1.10;;;1.00;;
29030;SDS011;16122;50.236;11.734;2024-03-25T07:02:47;2.23;;;1.30;;
29030;SDS011;16122;50.236;11.734;2024-03-25T07:05:13;1.20;;;0.90;;
29030;SDS011;16122;50.236;11.734;2024-03-25T07:07:39;1.33;;;1.20;;
29030;SDS011;16122;50.236;11.734;2024-03-25T07:10:05;1.20;;;1.00;;
29030;SDS011;16122;50.236;11.734;2024-03-25T07:12:31;1.63;;;1.20;;
29030;SDS011;16122;50.236;11.734;2024-03-25T07:14:57;1.77;;;0.90;;
29030;SDS011;16122;50.236;11.734;2024-03-25T07:17:23;1.77;;;1.10;;
29030;SDS011;16122;50.236;11.734;2024-03-25T07:19:50;1.30;;;1.00;;
29030;SDS011;16122;50.236;11.734;2024-03-25T07:22:16;1.40;;;1.20;;
29030;SDS011;16122;50.236;11.734;2024-03-25T07:24:42;1.83;;;1.57;;
29030;SDS011;16122;50.236;11.734;2024-03-25T07:27:08;1.10;;;1.00;;
29030;SDS011;16122;50.236;11.734;2024-03-25T07:29:35;1.50;;;1.00;;
29030;SDS011;16122;50.236;11.734;2024-03-25T07:32:00;1.17;;;1.07;;
29030;SDS011;16122;50.236;11.734;2024-03-25T07:34:26;2.70;;;1.00;;
29030;SDS011;16122;50.236;11.734;2024-03-25T07:36:52;1.30;;;1.13;;
29030;SDS011;16122;50.236;11.734;2024-03-25T07:39:18;1.40;;;1.10;;
29030;SDS011;16122;50.236;11.734;2024-03-25T07:41:44;2.13;;;1.03;;
29030;SDS011;16122;50.236;11.734;2024-03-25T07:44:09;1.10;;;1.00;;
29030;SDS011;16122;50.236;11.734;2024-03-25T07:46:35;1.00;;;0.83;;
29030;SDS011;16122;50.236;11.734;2024-03-25T07:49:01;1.03;;;0.93;;
29030;SDS011;16122;50.236;11.734;2024-03-25T07:51:27;2.40;;;1.10;;
29030;SDS011;16122;50.236;11.734;2024-03-25T07:53:52;1.50;;;1.13;;
29030;SDS011;16122;50.236;11.734;2024-03-25T07:56:20;4.30;;;1.00;;
29030;SDS011;16122;50.236;11.734;2024-03-25T07:58:46;1.23;;;0.80;;
29030;SDS011;16122;50.236;11.734;2024-03-25T08:01:12;1.53;;;1.40;;
29030;SDS011;16122;50.236;11.734;2024-03-25T08:03:37;1.10;;;1.00;;
29030;SDS011;16122;50.236;11.734;2024-03-25T08:06:03;1.43;;;1.00;;
29030;SDS011;16122;50.236;11.734;2024-03-25T08:08:29;1.57;;;1.00;;
29030;SDS011;16122;50.236;11.734;2024-03-25T08:10:55;1.17;;;0.93;;
29030;SDS011;16122;50.236;11.734;2024-03-25T08:13:21;1.20;;;1.10;;
29030;SDS011;16122;50.236;11.734;2024-03-25T08:15:47;2.30;;;1.30;;
29030;SDS011;16122;50.236;11.734;2024-03-25T08:18:13;1.10;;;1.00;;
29030;SDS011;16122;50.236;11.734;2024-03-25T08:20:39;2.67;;;1.23;;
29030;SDS011;16122;50.236;11.734;2024-03-25T08:23:05;1.27;;;1.00;;
29030;SDS011;16122;50.236;11.734;2024-03-25T08:25:32;1.83;;;1.03;;
29030;SDS011;16122;50.236;11.734;2024-03-25T08:27:58;1.20;;;1.10;;
29030;SDS011;16122;50.236;11.734;2024-03-25T08:30:24;1.13;;;0.90;;
29030;SDS011;16122;50.236;11.734;2024-03-25T08:32:50;1.37;;;1.23;;
29030;SDS011;16122;50.236;11.734;2024-03-25T08:35:16;1.87;;;0.90;;
29030;SDS011;16122;50.236;11.734;2024-03-25T08:37:42;0.80;;;0.80;;
29030;SDS011;16122;50.236;11.734;2024-03-25T08:40:08;1.93;;;0.97;;
29030;SDS011;16122;50.236;11.734;2024-03-25T08:42:34;1.30;;;1.00;;
29030;SDS011;16122;50.236;11.734;2024-03-25T08:45:00;2.30;;;1.10;;
29030;SDS011;16122;50.236;11.734;2024-03-25T08:47:26;2.10;;;1.20;;
29030;SDS011;16122;50.236;11.734;2024-03-25T08:49:52;1.50;;;1.20;;
29030;SDS011;16122;50.236;11.734;2024-03-25T08:52:18;1.07;;;0.97;;
29030;SDS011;16122;50.236;11.734;2024-03-25T08:54:44;1.50;;;0.90;;
29030;SDS011;16122;50.236;11.734;2024-03-25T08:57:12;1.30;;;1.20;;
29030;SDS011;16122;50.236;11.734;2024-03-25T08:59:38;1.63;;;1.13;;
29030;SDS011;16122;50.236;11.734;2024-03-25T09:02:04;1.70;;;0.97;;
29030;SDS011;16122;50.236;11.734;2024-03-25T09:04:31;1.53;;;1.33;;
29030;SDS011;16122;50.236;11.734;2024-03-25T09:06:57;1.03;;;0.90;;
29030;SDS011;16122;50.236;11.734;2024-03-25T09:09:23;1.97;;;1.27;;
29030;SDS011;16122;50.236;11.734;2024-03-25T09:12:07;2.13;;;1.00;;
29030;SDS011;16122;50.236;11.734;2024-03-25T09:14:33;1.87;;;1.00;;
29030;SDS011;16122;50.236;11.734;2024-03-25T09:16:59;1.37;;;1.27;;
29030;SDS011;16122;50.236;11.734;2024-03-25T09:19:25;1.10;;;1.00;;
29030;SDS011;16122;50.236;11.734;2024-03-25T09:21:51;1.10;;;1.00;;
29030;SDS011;16122;50.236;11.734;2024-03-25T09:24:17;1.10;;;1.00;;
29030;SDS011;16122;50.236;11.734;2024-03-25T09:26:44;1.67;;;0.97;;
29030;SDS011;16122;50.236;11.734;2024-03-25T09:29:11;1.13;;;1.00;;
29030;SDS011;16122;50.236;11.734;2024-03-25T09:31:38;1.37;;;1.10;;
29030;SDS011;16122;50.236;11.734;2024-03-25T09:34:05;2.50;;;1.27;;
29030;SDS011;16122;50.236;11.734;2024-03-25T09:36:30;1.43;;;1.10;;
29030;SDS011;16122;50.236;11.734;2024-03-25T09:38:56;1.90;;;1.47;;
29030;SDS011;16122;50.236;11.734;2024-03-25T09:41:23;2.03;;;1.20;;
29030;SDS011;16122;50.236;11.734;2024-03-25T09:43:52;1.20;;;1.10;;
29030;SDS011;16122;50.236;11.734;2024-03-25T09:46:20;1.90;;;1.17;;
29030;SDS011;16122;50.236;11.734;2024-03-25T09:48:47;1.30;;;1.20;;
29030;SDS011;16122;50.236;11.734;2024-03-25T09:51:15;2.60;;;1.40;;
29030;SDS011;16122;50.236;11.734;2024-03-25T09:53:41;1.23;;;1.10;;
29030;SDS011;16122;50.236;11.734;2024-03-25T09:56:06;13.00;;;1.77;;
29030;SDS011;16122;50.236;11.734;2024-03-25T09:58:33;2.80;;;1.47;;
29030;SDS011;16122;50.236;11.734;2024-03-25T10:00:59;2.57;;;1.30;;
29030;SDS011;16122;50.236;11.734;2024-03-25T10:03:25;2.90;;;1.33;;
29030;SDS011;16122;50.236;11.734;2024-03-25T10:05:51;1.63;;;1.37;;
29030;SDS011;16122;50.236;11.734;2024-03-25T10:08:20;2.40;;;0.90;;
29030;SDS011;16122;50.236;11.734;2024-03-25T10:10:47;1.57;;;1.20;;
29030;SDS011;16122;50.236;11.734;2024-03-25T10:13:12;1.93;;;1.30;;
29030;SDS011;16122;50.236;11.734;2024-03-25T10:15:38;2.30;;;1.00;;
29030;SDS011;16122;50.236;11.734;2024-03-25T10:18:04;1.60;;;1.17;;
29030;SDS011;16122;50.236;11.734;2024-03-25T10:20:32;1.77;;;1.50;;
29030;SDS011;16122;50.236;11.734;2024-03-25T10:22:59;1.20;;;1.10;;
29030;SDS011;16122;50.236;11.734;2024-03-25T10:25:26;1.33;;;1.10;;
29030;SDS011;16122;50.236;11.734;2024-03-25T10:27:57;1.40;;;1.30;;
29030;SDS011;16122;50.236;11.734;2024-03-25T10:30:27;1.30;;;1.07;;
29030;SDS011;16122;50.236;11.734;2024-03-25T10:33:04;2.53;;;1.37;;
29030;SDS011;16122;50.236;11.734;2024-03-25T10:35:31;1.07;;;0.97;;
29030;SDS011;16122;50.236;11.734;2024-03-25T10:37:59;1.23;;;1.10;;
29030;SDS011;16122;50.236;11.734;2024-03-25T10:40:34;1.97;;;1.37;;
29030;SDS011;16122;50.236;11.734;2024-03-25T10:43:08;2.20;;;1.00;;
29030;SDS011;16122;50.236;11.734;2024-03-25T10:48:20;1.60;;;1.47;;
29030;SDS011;16122;50.236;11.734;2024-03-25T10:50:51;2.63;;;1.50;;
29030;SDS011;16122;50.236;11.734;2024-03-25T10:53:20;1.63;;;1.50;;
29030;SDS011;16122;50.236;11.734;2024-03-25T10:55:50;4.20;;;3.80;;
29030;SDS011;16122;50.236;11.734;2024-03-25T10:58:18;5.03;;;4.60;;
29030;SDS011;16122;50.236;11.734;2024-03-25T11:00:48;84.37;;;65.60;;
29030;SDS011;16122;50.236;11.734;2024-03-25T11:03:15;106.40;;;79.93;;
29030;SDS011;16122;50.236;11.734;2024-03-25T11:05:42;81.93;;;62.13;;
29030;SDS011;16122;50.236;11.734;2024-03-25T11:08:14;72.67;;;55.90;;
29030;SDS011;16122;50.236;11.734;2024-03-25T11:10:45;71.50;;;56.03;;
29030;SDS011;16122;50.236;11.734;2024-03-25T11:13:16;69.10;;;55.23;;
29030;SDS011;16122;50.236;11.734;2024-03-25T11:15:47;67.70;;;52.60;;
29030;SDS011;16122;50.236;11.734;2024-03-25T11:18:14;72.23;;;56.07;;
29030;SDS011;16122;50.236;11.734;2024-03-25T11:20:43;68.40;;;53.13;;
29030;SDS011;16122;50.236;11.734;2024-03-25T11:23:10;62.67;;;48.97;;
29030;SDS011;16122;50.236;11.734;2024-03-25T11:25:40;63.60;;;49.70;;
29030;SDS011;16122;50.236;11.734;2024-03-25T11:28:07;61.60;;;48.23;;
29030;SDS011;16122;50.236;11.734;2024-03-25T11:30:34;63.17;;;47.77;;
29030;SDS011;16122;50.236;11.734;2024-03-25T11:33:02;60.87;;;46.53;;
29030;SDS011;16122;50.236;11.734;2024-03-25T11:35:36;57.53;;;46.10;;
29030;SDS011;16122;50.236;11.734;2024-03-25T11:38:02;58.37;;;46.33;;
29030;SDS011;16122;50.236;11.734;2024-03-25T11:40:29;57.27;;;43.13;;
29030;SDS011;16122;50.236;11.734;2024-03-25T11:42:55;56.07;;;44.33;;
29030;SDS011;16122;50.236;11.734;2024-03-25T11:45:21;56.60;;;46.10;;
29030;SDS011;16122;50.236;11.734;2024-03-25T11:47:49;56.67;;;45.10;;
29030;SDS011;16122;50.236;11.734;2024-03-25T11:50:16;56.80;;;44.17;;
29030;SDS011;16122;50.236;11.734;2024-03-25T11:52:43;54.23;;;42.80;;
29030;SDS011;16122;50.236;11.734;2024-03-25T11:55:10;51.77;;;42.37;;
29030;SDS011;16122;50.236;11.734;2024-03-25T11:57:40;55.90;;;42.60;;
29030;SDS011;16122;50.236;11.734;2024-03-25T12:00:07;49.47;;;41.07;;
29030;SDS011;16122;50.236;11.734;2024-03-25T12:02:43;49.37;;;38.97;;
29030;SDS011;16122;50.236;11.734;2024-03-25T12:05:12;50.13;;;39.00;;
29030;SDS011;16122;50.236;11.734;2024-03-25T12:07:38;52.47;;;40.53;;
29030;SDS011;16122;50.236;11.734;2024-03-25T12:10:05;49.10;;;39.20;;
29030;SDS011;16122;50.236;11.734;2024-03-25T12:12:50;49.10;;;40.43;;
29030;SDS011;16122;50.236;11.734;2024-03-25T12:15:19;56.57;;;42.43;;
29030;SDS011;16122;50.236;11.734;2024-03-25T12:17:45;49.53;;;40.20;;
29030;SDS011;16122;50.236;11.734;2024-03-25T12:20:11;48.00;;;38.87;;
29030;SDS011;16122;50.236;11.734;2024-03-25T12:22:41;45.60;;;37.73;;
29030;SDS011;16122;50.236;11.734;2024-03-25T12:25:07;47.90;;;38.93;;
29030;SDS011;16122;50.236;11.734;2024-03-25T12:27:36;45.40;;;38.10;;
29030;SDS011;16122;50.236;11.734;2024-03-25T12:30:06;44.97;;;36.70;;
29030;SDS011;16122;50.236;11.734;2024-03-25T12:35:03;43.20;;;34.80;;
29030;SDS011;16122;50.236;11.734;2024-03-25T12:37:33;43.13;;;35.57;;
29030;SDS011;16122;50.236;11.734;2024-03-25T12:39:59;45.70;;;35.57;;
29030;SDS011;16122;50.236;11.734;2024-03-25T12:42:25;45.57;;;35.63;;
29030;SDS011;16122;50.236;11.734;2024-03-25T12:44:55;39.87;;;34.10;;
29030;SDS011;16122;50.236;11.734;2024-03-25T12:47:20;41.47;;;33.40;;
29030;SDS011;16122;50.236;11.734;2024-03-25T12:49:46;40.03;;;33.83;;
29030;SDS011;16122;50.236;11.734;2024-03-25T12:52:12;42.60;;;33.33;;
29030;SDS011;16122;50.236;11.734;2024-03-25T12:54:38;40.67;;;33.80;;
29030;SDS011;16122;50.236;11.734;2024-03-25T12:57:05;43.27;;;33.10;;
29030;SDS011;16122;50.236;11.734;2024-03-25T12:59:31;40.20;;;31.67;;
29030;SDS011;16122;50.236;11.734;2024-03-25T13:01:56;42.43;;;34.93;;
29030;SDS011;16122;50.236;11.734;2024-03-25T13:04:22;40.73;;;33.13;;
29030;SDS011;16122;50.236;11.734;2024-03-25T13:06:48;39.53;;;31.20;;
29030;SDS011;16122;50.236;11.734;2024-03-25T13:09:14;37.30;;;31.53;;
29030;SDS011;16122;50.236;11.734;2024-03-25T13:11:40;39.07;;;31.33;;
29030;SDS011;16122;50.236;11.734;2024-03-25T13:14:06;37.00;;;31.10;;
29030;SDS011;16122;50.236;11.734;2024-03-25T13:16:35;40.00;;;31.23;;
29030;SDS011;16122;50.236;11.734;2024-03-25T13:19:00;37.27;;;30.80;;
29030;SDS011;16122;50.236;11.734;2024-03-25T13:21:27;38.00;;;29.63;;
29030;SDS011;16122;50.236;11.734;2024-03-25T13:23:53;36.00;;;29.67;;
29030;SDS011;16122;50.236;11.734;2024-03-25T13:26:18;32.70;;;27.67;;
29030;SDS011;16122;50.236;11.734;2024-03-25T13:28:44;35.17;;;28.93;;
29030;SDS011;16122;50.236;11.734;2024-03-25T13:31:10;34.80;;;28.70;;
29030;SDS011;16122;50.236;11.734;2024-03-25T13:33:37;34.00;;;28.33;;
29030;SDS011;16122;50.236;11.734;2024-03-25T13:36:04;32.30;;;26.80;;
29030;SDS011;16122;50.236;11.734;2024-03-25T13:38:31;33.80;;;28.03;;
29030;SDS011;16122;50.236;11.734;2024-03-25T13:40:59;32.13;;;26.07;;
29030;SDS011;16122;50.236;11.734;2024-03-25T13:43:25;32.17;;;26.23;;
29030;SDS011;16122;50.236;11.734;2024-03-25T13:45:51;31.60;;;25.27;;
29030;SDS011;16122;50.236;11.734;2024-03-25T13:48:17;31.43;;;24.23;;
29030;SDS011;16122;50.236;11.734;2024-03-25T13:50:43;29.70;;;24.57;;
29030;SDS011;16122;50.236;11.734;2024-03-25T13:53:13;32.63;;;26.27;;
29030;SDS011;16122;50.236;11.734;2024-03-25T13:55:39;31.10;;;23.90;;
29030;SDS011;16122;50.236;11.734;2024-03-25T13:58:05;29.83;;;24.33;;
29030;SDS011;16122;50.236;11.734;2024-03-25T14:00:32;30.30;;;25.03;;
29030;SDS011;16122;50.236;11.734;2024-03-25T14:02:59;29.87;;;24.60;;
29030;SDS011;16122;50.236;11.734;2024-03-25T14:05:25;28.10;;;23.57;;
29030;SDS011;16122;50.236;11.734;2024-03-25T14:07:51;32.70;;;23.57;;
29030;SDS011;16122;50.236;11.734;2024-03-25T14:10:17;28.33;;;23.23;;
29030;SDS011;16122;50.236;11.734;2024-03-25T14:12:43;30.60;;;24.77;;
29030;SDS011;16122;50.236;11.734;2024-03-25T14:15:08;27.90;;;23.27;;
29030;SDS011;16122;50.236;11.734;2024-03-25T14:17:35;29.93;;;23.70;;
29030;SDS011;16122;50.236;11.734;2024-03-25T14:20:01;28.70;;;23.47;;
29030;SDS011;16122;50.236;11.734;2024-03-25T14:22:27;29.90;;;23.90;;
29030;SDS011;16122;50.236;11.734;2024-03-25T14:24:52;26.27;;;21.37;;
29030;SDS011;16122;50.236;11.734;2024-03-25T14:27:26;30.03;;;22.70;;
29030;SDS011;16122;50.236;11.734;2024-03-25T14:29:52;25.53;;;20.87;;
29030;SDS011;16122;50.236;11.734;2024-03-25T14:32:21;26.63;;;21.97;;